WIII Airport Information

Runway Information
Runway 07L Length 11812 ft width 197 ft
Elevation 29 ft Threshold 0 ft Heading 68
Runway 25R Length 11812 ft Width 197 ft
Elevation 21 ft Threshold 0 ft Heading 248
Runway 07R Length 12008 ft width 197 ft
Elevation 34 ft Threshold 0 ft Heading 68
Runway 25L Length 12008 ft Width 197 ft
Elevation 27 ft Threshold 0 ft Heading 248
Airport Frequencies
Type APP Name JAKARTA AP Frequency 119.75 MHZ
Type ARR Name JAKARTA AR Frequency 125.45 MHZ
Type ATIS Name ATIS Frequency 126.85 MHZ
Type CLD Name CLNC DEL Frequency 121.95 MHZ
Type FSS Name JAKARTA CE Frequency 129.7 MHZ
Type GND Name GND Frequency 121.6 MHZ
Type INFO Name PABELOKAN Frequency 129.8 MHZ
Type TWR Name TWR Frequency 118.75 MHZ
Airport Navaids
Type VOR-DME Name Cengkareng Frequency 113600 KHZ
Type VOR-DME Name Jakarta Frequency 114600 KHZ
Airport Weather Information & NOTAM
ADDS - METARS form results

(1119 UTC 20 April 2019)
Data provider http://aviationweather.gov/metar/data/
 
METAR text: WIII 201100Z 34003KT 9000 SCT020 29/24 Q1007 NOSIG
Conditions at: WIII (SOEKARNO-HATTA I, ID) observed 1100 UTC 20 April 2019
Temperature: 29.0°C (84°F)
Dewpoint: 24.0°C (75°F) [RH = 74%]
Pressure (altimeter): 29.73 inches Hg (1007.0 mb)
Winds: from the NNW (340 degrees) at 3 MPH (3 knots; 1.5 m/s)
Visibility: 6 miles ( 9 km)
Ceiling: at least 12,000 feet AGL
Clouds: scattered clouds at 2000 feet AGL
Weather: no significant weather observed at this time

METAR text: WIII 201030Z 32004KT 9000 SCT020 29/24 Q1007 NOSIG
Conditions at: WIII (SOEKARNO-HATTA I, ID) observed 1030 UTC 20 April 2019
Temperature: 29.0°C (84°F)
Dewpoint: 24.0°C (75°F) [RH = 74%]
Pressure (altimeter): 29.73 inches Hg (1007.0 mb)
Winds: from the NW (320 degrees) at 5 MPH (4 knots; 2.1 m/s)
Visibility: 6 miles ( 9 km)
Ceiling: at least 12,000 feet AGL
Clouds: scattered clouds at 2000 feet AGL
Weather: no significant weather observed at this time

Forecast for: WIII (SOEKARNO-HATTA I, ID)
Text: TAF WIII 201100Z 2012/2118 VRB03KT 7000 SCT020
Forecast period: 1200 to 1700 UTC 20 April 2019
Forecast type: FROM: standard forecast or significant change
Winds: variable direction winds at 3 MPH (3 knots; 1.5 m/s)
Visibility: 4 miles (7 km)
Ceiling: at least 12,000 feet AGL
Clouds: scattered clouds at 2000 feet AGL
Weather: no significant weather forecast for this period
Text: BECMG 2017/2019 4000 HZ
Forecast period: 1700 UTC 20 April 2019 to 1800 UTC 21 April 2019
Forecast type: BECOMING: Conditions expected to become as follows by 1900 UTC 20 April 2019
Winds: variable direction winds at 3 MPH (3 knots; 1.5 m/s)
Visibility: 2.49 miles (4.01 km)
Ceiling: at least 12,000 feet AGL
Clouds: scattered clouds at 2000 feet AGL
Weather: HZ  (haze)